createdAt,value
2017-11-09T00:00:55.727Z,14.45
2017-11-09T00:03:23.184Z,13.62
2017-11-09T00:05:56.326Z,13.45
2017-11-09T00:08:27.243Z,13.02
2017-11-09T00:10:54.693Z,13.15
2017-11-09T00:13:22.173Z,13.25
2017-11-09T00:15:49.689Z,13.45
2017-11-09T00:18:17.185Z,12.55
2017-11-09T00:20:44.622Z,12.05
2017-11-09T00:23:15.666Z,12.48
2017-11-09T00:25:43.198Z,13.57
2017-11-09T00:28:10.802Z,12.65
2017-11-09T00:30:38.271Z,13.82
2017-11-09T00:33:05.898Z,12.05
2017-11-09T00:35:33.338Z,14.00
2017-11-09T00:38:04.302Z,13.55
2017-11-09T00:40:31.776Z,16.55
2017-11-09T00:42:59.530Z,13.32
2017-11-09T00:45:27.003Z,14.48
2017-11-09T00:47:54.639Z,14.18
2017-11-09T00:50:22.107Z,14.82
2017-11-09T00:52:53.972Z,15.70
2017-11-09T00:55:21.414Z,16.33
2017-11-09T00:57:48.881Z,16.60
2017-11-09T01:00:16.364Z,17.37
2017-11-09T01:02:43.798Z,16.50
2017-11-09T01:05:11.424Z,16.98
2017-11-09T01:07:38.898Z,16.12
2017-11-09T01:10:06.373Z,16.58
2017-11-09T01:12:33.827Z,19.80
2017-11-09T01:15:01.405Z,19.02
2017-11-09T01:17:29.075Z,16.98
2017-11-09T01:19:57.298Z,18.62
2017-11-09T01:22:24.786Z,17.05
2017-11-09T01:24:52.346Z,19.50
2017-11-09T01:27:19.790Z,17.87
2017-11-09T01:29:47.260Z,17.17
2017-11-09T01:32:14.701Z,15.70
2017-11-09T01:34:42.175Z,16.48
2017-11-09T01:37:09.616Z,18.05
2017-11-09T01:39:37.066Z,18.27
2017-11-09T01:42:04.549Z,16.77
2017-11-09T01:44:31.984Z,17.80
2017-11-09T01:46:59.457Z,19.90
2017-11-09T01:49:26.972Z,19.55
2017-11-09T01:51:54.406Z,18.80
2017-11-09T01:54:21.907Z,21.48
2017-11-09T01:56:49.427Z,17.65
2017-11-09T01:59:16.908Z,20.65
2017-11-09T02:01:44.619Z,19.65
2017-11-09T02:04:12.367Z,18.55
2017-11-09T02:06:39.850Z,19.65
2017-11-09T02:09:07.299Z,19.45
2017-11-09T02:11:34.840Z,21.05
2017-11-09T02:14:02.303Z,20.98
2017-11-09T02:16:29.758Z,19.77
2017-11-09T02:18:57.226Z,19.42
2017-11-09T02:21:24.697Z,19.00
2017-11-09T02:23:52.948Z,19.15
2017-11-09T02:26:20.416Z,18.15
2017-11-09T02:28:47.884Z,19.37
2017-11-09T02:31:15.326Z,19.10
2017-11-09T02:33:42.793Z,19.20
2017-11-09T02:36:10.260Z,20.67
2017-11-09T02:38:37.727Z,20.73
2017-11-09T02:41:05.172Z,18.65
2017-11-09T02:43:32.902Z,18.52
2017-11-09T02:46:00.375Z,20.55
2017-11-09T02:48:27.810Z,21.17
2017-11-09T02:50:55.283Z,19.75
2017-11-09T02:53:22.722Z,18.77
2017-11-09T02:55:51.975Z,19.73
2017-11-09T02:58:19.416Z,20.12
2017-11-09T03:00:46.884Z,21.35
2017-11-09T03:03:14.368Z,19.33
2017-11-09T03:05:41.803Z,18.40
2017-11-09T03:08:09.288Z,18.80
2017-11-09T03:10:40.767Z,17.83
2017-11-09T03:13:12.549Z,18.55
2017-11-09T03:15:39.977Z,20.10
2017-11-09T03:18:07.459Z,18.40
2017-11-09T03:20:34.907Z,18.90
2017-11-09T03:23:02.362Z,18.67
2017-11-09T03:25:36.910Z,18.05
2017-11-09T03:28:04.861Z,17.58
2017-11-09T03:30:32.681Z,20.15
2017-11-09T03:33:00.157Z,17.02
2017-11-09T03:35:27.614Z,16.00
2017-11-09T03:37:55.110Z,17.00
2017-11-09T03:40:22.546Z,15.23
2017-11-09T03:42:49.985Z,17.05
2017-11-09T03:45:17.456Z,15.80
2017-11-09T03:47:44.942Z,14.60
2017-11-09T03:50:12.387Z,14.70
2017-11-09T03:52:39.976Z,15.60
2017-11-09T03:55:07.452Z,14.55
2017-11-09T03:57:34.912Z,16.35
2017-11-09T04:00:02.373Z,15.50
2017-11-09T04:02:30.343Z,13.27
2017-11-09T04:04:58.026Z,12.50
2017-11-09T04:07:25.491Z,13.57
2017-11-09T04:09:53.155Z,13.13
2017-11-09T04:12:21.018Z,15.60
2017-11-09T04:14:59.543Z,14.57
2017-11-09T04:17:26.986Z,14.35
2017-11-09T04:19:54.455Z,15.05
2017-11-09T04:22:23.411Z,14.52
2017-11-09T04:24:50.878Z,14.82
2017-11-09T04:27:25.445Z,13.68
2017-11-09T04:29:53.069Z,13.27
2017-11-09T04:32:20.763Z,13.80
2017-11-09T04:34:48.226Z,12.00
2017-11-09T04:37:15.666Z,12.50
2017-11-09T04:39:43.224Z,12.82
2017-11-09T04:42:13.876Z,15.48
2017-11-09T04:44:41.622Z,13.48
2017-11-09T04:47:09.068Z,13.32
2017-11-09T04:49:36.743Z,15.68
2017-11-09T04:52:05.223Z,12.37
2017-11-09T04:54:33.051Z,14.38
2017-11-09T04:57:00.519Z,14.05
2017-11-09T04:59:27.965Z,14.13
2017-11-09T05:01:55.834Z,12.48
2017-11-09T05:04:23.778Z,13.57
2017-11-09T05:06:51.247Z,12.45
2017-11-09T05:09:18.678Z,13.70
2017-11-09T05:11:46.647Z,13.52
2017-11-09T05:14:14.869Z,13.18
2017-11-09T05:16:42.318Z,12.18
2017-11-09T05:19:13.738Z,12.30
2017-11-09T05:21:41.464Z,11.63
2017-11-09T05:24:08.906Z,12.68
2017-11-09T05:26:36.715Z,13.35
2017-11-09T05:29:04.451Z,13.45
2017-11-09T05:31:31.912Z,12.70
2017-11-09T05:33:59.402Z,13.10
2017-11-09T05:36:26.839Z,14.00
2017-11-09T05:38:54.439Z,13.98
2017-11-09T05:41:21.879Z,14.80
2017-11-09T05:43:49.486Z,14.48
2017-11-09T05:46:16.955Z,13.35
2017-11-09T05:48:44.415Z,12.82
2017-11-09T05:51:11.867Z,14.15
2017-11-09T05:53:39.650Z,14.00
2017-11-09T05:56:07.139Z,12.88
2017-11-09T05:58:34.596Z,13.70
2017-11-09T06:01:02.220Z,12.57
2017-11-09T06:03:29.663Z,13.02
2017-11-09T06:05:57.170Z,14.13
2017-11-09T06:08:24.627Z,14.30
2017-11-09T06:10:52.092Z,14.18
2017-11-09T06:13:23.290Z,13.05
2017-11-09T06:15:50.751Z,15.07
2017-11-09T06:18:18.205Z,14.20
2017-11-09T06:20:45.652Z,11.95
2017-11-09T06:23:13.118Z,12.82
2017-11-09T06:25:40.879Z,12.90
2017-11-09T06:28:08.351Z,14.18
2017-11-09T06:30:35.799Z,13.02
2017-11-09T06:33:03.259Z,14.35
2017-11-09T06:35:30.865Z,13.45
2017-11-09T06:37:58.304Z,13.38
2017-11-09T06:40:26.085Z,15.50
2017-11-09T06:42:53.595Z,16.87
2017-11-09T06:45:21.035Z,14.87
2017-11-09T06:47:48.774Z,15.52
2017-11-09T06:50:16.221Z,16.58
2017-11-09T06:52:44.042Z,15.48
2017-11-09T06:55:12.266Z,15.88
2017-11-09T06:57:39.721Z,15.45
2017-11-09T07:00:07.186Z,15.82
2017-11-09T07:02:34.657Z,17.40
2017-11-09T07:05:02.110Z,14.90
2017-11-09T07:07:29.592Z,15.95
2017-11-09T07:09:57.173Z,15.55
2017-11-09T07:12:25.381Z,16.10
2017-11-09T07:14:56.013Z,15.35
2017-11-09T07:17:23.607Z,17.42
2017-11-09T07:19:51.064Z,15.63
2017-11-09T07:22:18.543Z,17.95
2017-11-09T07:24:45.970Z,18.10
2017-11-09T07:27:13.456Z,15.60
2017-11-09T07:29:40.894Z,17.42
2017-11-09T07:32:12.462Z,18.80
2017-11-09T07:34:40.115Z,18.05
2017-11-09T07:37:07.602Z,17.05
2017-11-09T07:39:35.083Z,16.27
2017-11-09T07:42:02.780Z,17.37
2017-11-09T07:44:34.237Z,17.85
2017-11-09T07:47:01.715Z,19.87
2017-11-09T07:49:29.212Z,19.60
2017-11-09T07:54:30.933Z,19.02
2017-11-09T07:56:58.370Z,19.42
2017-11-09T07:59:25.854Z,22.45
2017-11-09T08:01:53.315Z,21.00
2017-11-09T08:04:20.789Z,20.95
2017-11-09T08:06:48.218Z,21.15
2017-11-09T08:09:15.684Z,20.75
2017-11-09T08:11:43.343Z,19.55
2017-11-09T08:14:10.811Z,18.83
2017-11-09T08:16:38.413Z,19.48
2017-11-09T08:19:06.011Z,21.85
2017-11-09T08:21:33.487Z,22.92
2017-11-09T08:24:02.582Z,20.08
2017-11-09T08:26:33.159Z,20.70
2017-11-09T08:29:03.651Z,22.83
2017-11-09T08:31:42.014Z,19.77
2017-11-09T08:34:09.459Z,20.05
2017-11-09T08:36:36.951Z,18.73
2017-11-09T08:39:04.405Z,19.98
2017-11-09T08:41:31.868Z,20.48
2017-11-09T08:43:59.503Z,19.62
2017-11-09T08:46:26.955Z,20.75
2017-11-09T08:48:57.934Z,22.55
2017-11-09T08:51:25.395Z,20.15
2017-11-09T08:53:52.839Z,23.55
2017-11-09T08:56:20.586Z,20.95
2017-11-09T08:58:48.223Z,22.08
2017-11-09T09:01:15.651Z,23.05
2017-11-09T09:03:47.982Z,22.35
2017-11-09T09:06:15.430Z,23.90
2017-11-09T09:08:42.890Z,23.20
2017-11-09T09:11:10.339Z,22.25
2017-11-09T09:13:37.950Z,21.65
2017-11-09T09:16:05.389Z,26.73
2017-11-09T09:18:32.911Z,22.83
2017-11-09T09:24:09.889Z,23.52
2017-11-09T09:29:51.574Z,23.35
2017-11-09T09:32:24.221Z,21.62
2017-11-09T09:34:56.381Z,20.77
2017-11-09T09:37:39.165Z,20.00
2017-11-09T09:40:08.909Z,24.92
2017-11-09T09:42:36.577Z,23.65
2017-11-09T09:45:04.039Z,25.60
2017-11-09T09:47:31.492Z,23.08
2017-11-09T09:50:03.218Z,25.05
2017-11-09T09:52:31.179Z,24.08
2017-11-09T09:54:58.656Z,23.60
2017-11-09T09:57:26.134Z,22.25
2017-11-09T09:59:53.587Z,21.40
2017-11-09T10:02:21.034Z,22.58
2017-11-09T10:04:51.792Z,21.30
2017-11-09T10:07:19.274Z,23.67
2017-11-09T10:09:47.515Z,26.73
2017-11-09T10:12:14.972Z,22.33
2017-11-09T10:14:42.446Z,24.33
2017-11-09T10:17:14.148Z,21.00
2017-11-09T10:19:44.813Z,22.48
2017-11-09T10:22:12.247Z,23.92
2017-11-09T10:24:40.135Z,25.98
2017-11-09T10:27:07.762Z,25.33
2017-11-09T10:29:35.218Z,23.05
2017-11-09T10:32:02.707Z,22.08
2017-11-09T10:34:34.260Z,24.67
2017-11-09T10:37:01.722Z,26.45
2017-11-09T10:39:29.486Z,24.17
2017-11-09T10:41:57.111Z,26.08
2017-11-09T10:44:24.747Z,23.85
2017-11-09T10:46:52.446Z,25.83
2017-11-09T10:49:23.652Z,24.25
2017-11-09T10:51:51.087Z,23.62
2017-11-09T10:54:18.835Z,24.02
2017-11-09T10:56:46.284Z,26.05
2017-11-09T10:59:13.730Z,26.58
2017-11-09T11:01:41.228Z,25.12
2017-11-09T11:04:12.408Z,24.10
2017-11-09T11:06:39.858Z,24.25
2017-11-09T11:09:07.571Z,24.58
2017-11-09T11:11:35.034Z,25.60
2017-11-09T11:14:02.492Z,23.50
2017-11-09T11:16:29.946Z,24.15
2017-11-09T11:19:01.459Z,25.48
2017-11-09T11:21:29.034Z,24.92
2017-11-09T11:23:56.514Z,25.30
2017-11-09T11:26:23.982Z,24.37
2017-11-09T11:28:52.554Z,26.33
2017-11-09T11:31:20.011Z,26.20
2017-11-09T11:33:47.479Z,23.05
2017-11-09T11:36:18.806Z,24.48
2017-11-09T11:38:46.247Z,20.23
2017-11-09T11:41:13.708Z,25.58
2017-11-09T11:43:41.495Z,24.73
2017-11-09T11:46:15.815Z,23.83
2017-11-09T11:48:53.993Z,22.80
2017-11-09T11:51:21.583Z,21.80
2017-11-09T11:53:49.130Z,21.15
2017-11-09T11:56:16.604Z,22.25
2017-11-09T11:58:44.530Z,23.25
2017-11-09T12:01:12.047Z,21.87
2017-11-09T12:03:39.491Z,19.90
2017-11-09T12:06:11.959Z,23.98
2017-11-09T12:08:39.406Z,19.73
2017-11-09T12:11:06.864Z,23.02
2017-11-09T12:13:34.344Z,22.20
2017-11-09T12:16:01.786Z,23.10
2017-11-09T12:18:29.284Z,20.95
2017-11-09T12:21:00.409Z,19.55
2017-11-09T12:23:28.045Z,17.60
2017-11-09T12:25:55.513Z,20.65
2017-11-09T12:28:23.888Z,20.05
2017-11-09T12:30:51.399Z,20.40
2017-11-09T12:33:18.890Z,20.58
2017-11-09T12:35:49.819Z,21.10
2017-11-09T12:38:17.286Z,18.98
2017-11-09T12:40:44.762Z,18.02
2017-11-09T12:43:12.346Z,21.73
2017-11-09T12:45:40.114Z,22.98
2017-11-09T12:48:07.635Z,22.48
2017-11-09T12:50:35.273Z,21.75
2017-11-09T12:53:02.933Z,19.35
2017-11-09T12:55:30.411Z,20.55
2017-11-09T12:57:57.907Z,23.40
2017-11-09T13:00:26.134Z,22.50
2017-11-09T13:02:53.812Z,20.98
2017-11-09T13:05:25.985Z,18.60
2017-11-09T13:07:53.425Z,23.00
2017-11-09T13:10:20.911Z,21.42
2017-11-09T13:12:48.411Z,20.05
2017-11-09T13:15:16.010Z,19.75
2017-11-09T13:17:43.482Z,21.83
2017-11-09T13:20:15.028Z,19.75
2017-11-09T13:22:43.408Z,21.87
2017-11-09T13:25:10.856Z,22.40
2017-11-09T13:27:38.382Z,20.33
2017-11-09T13:30:06.076Z,21.60
2017-11-09T13:32:33.544Z,20.45
2017-11-09T13:35:01.043Z,22.08
2017-11-09T13:37:28.487Z,22.42
2017-11-09T13:39:55.965Z,19.98
2017-11-09T13:42:23.417Z,22.15
2017-11-09T13:44:50.968Z,20.67
2017-11-09T13:47:18.443Z,21.20
2017-11-09T13:49:45.955Z,21.37
2017-11-09T13:52:17.879Z,22.27
2017-11-09T13:54:45.359Z,22.55
2017-11-09T13:57:12.905Z,20.70
2017-11-09T13:59:40.369Z,21.80
2017-11-09T14:02:07.846Z,20.23
2017-11-09T14:04:36.054Z,23.75
2017-11-09T14:07:06.531Z,19.60
2017-11-09T14:09:34.310Z,20.15
2017-11-09T14:12:01.746Z,21.12
2017-11-09T14:14:29.502Z,21.73
2017-11-09T14:16:56.987Z,21.52
2017-11-09T14:19:24.609Z,17.40
2017-11-09T14:21:52.038Z,20.73
2017-11-09T14:24:19.511Z,19.52
2017-11-09T14:26:47.036Z,20.65
2017-11-09T14:29:14.507Z,23.60
2017-11-09T14:31:41.944Z,21.60
2017-11-09T14:34:09.439Z,17.35
2017-11-09T14:36:36.874Z,18.77
2017-11-09T14:39:08.999Z,19.27
2017-11-09T14:41:36.442Z,18.80
2017-11-09T14:44:03.877Z,20.40
2017-11-09T14:46:37.914Z,18.30
2017-11-09T14:49:05.382Z,17.12
2017-11-09T14:51:36.735Z,16.52
2017-11-09T14:54:07.275Z,17.98
2017-11-09T14:56:34.714Z,15.40
2017-11-09T14:59:02.160Z,15.82
2017-11-09T15:01:29.621Z,14.68
2017-11-09T15:03:57.078Z,15.10
2017-11-09T15:06:24.525Z,14.80
2017-11-09T15:08:51.999Z,15.45
2017-11-09T15:11:19.988Z,15.50
2017-11-09T15:13:47.456Z,14.63
2017-11-09T15:16:14.898Z,13.15
2017-11-09T15:18:48.349Z,11.25
2017-11-09T15:21:15.797Z,13.90
2017-11-09T15:23:47.835Z,12.52
2017-11-09T15:26:15.309Z,12.30
2017-11-09T15:28:42.794Z,13.35
2017-11-09T15:31:10.235Z,10.73
2017-11-09T15:33:37.706Z,12.65
2017-11-09T15:36:09.098Z,10.98
2017-11-09T15:38:36.552Z,11.35
2017-11-09T15:41:03.996Z,10.10
2017-11-09T15:43:31.838Z,13.13
2017-11-09T15:45:59.294Z,10.10
2017-11-09T15:48:26.722Z,9.82
2017-11-09T15:50:54.225Z,10.90
2017-11-09T15:53:21.667Z,9.80
2017-11-09T15:55:49.419Z,9.60
2017-11-09T15:58:16.903Z,9.68
2017-11-09T16:00:44.346Z,10.52
2017-11-09T16:03:11.815Z,9.02
2017-11-09T16:05:39.273Z,9.70
2017-11-09T16:08:10.314Z,10.50
2017-11-09T16:10:37.749Z,8.18
2017-11-09T16:13:05.224Z,8.50
2017-11-09T16:15:32.691Z,9.38
2017-11-09T16:18:00.163Z,9.15
2017-11-09T16:20:27.826Z,9.55
2017-11-09T16:22:56.050Z,9.43
2017-11-09T16:25:23.608Z,9.65
2017-11-09T16:27:55.846Z,8.43
2017-11-09T16:30:23.288Z,10.05
2017-11-09T16:32:50.948Z,10.25
2017-11-09T16:35:18.415Z,10.15
2017-11-09T16:37:45.955Z,9.45
2017-11-09T16:40:13.407Z,9.85
2017-11-09T16:42:42.696Z,8.30
2017-11-09T16:45:10.559Z,8.98
2017-11-09T16:47:38.060Z,9.65
2017-11-09T16:50:06.294Z,9.07
2017-11-09T16:52:40.568Z,10.75
2017-11-09T16:55:08.046Z,9.98
2017-11-09T16:57:35.490Z,10.88
2017-11-09T17:00:03.040Z,10.68
2017-11-09T17:02:30.533Z,9.38
2017-11-09T17:04:58.012Z,12.20
2017-11-09T17:07:25.548Z,9.85
2017-11-09T17:09:56.204Z,9.57
2017-11-09T17:12:23.749Z,9.38
2017-11-09T17:14:51.225Z,9.43
2017-11-09T17:17:18.700Z,8.95
2017-11-09T17:19:46.160Z,10.57
2017-11-09T17:22:14.545Z,10.02
2017-11-09T17:24:45.769Z,9.05
2017-11-09T17:27:14.345Z,9.43
2017-11-09T17:29:42.035Z,10.52
2017-11-09T17:32:10.264Z,10.80
2017-11-09T17:34:37.904Z,10.50
2017-11-09T17:37:05.370Z,10.38
2017-11-09T17:39:32.954Z,10.07
2017-11-09T17:42:10.670Z,11.23
2017-11-09T17:44:38.355Z,11.90
2017-11-09T17:47:06.759Z,12.20
2017-11-09T17:49:34.478Z,13.23
2017-11-09T17:52:01.959Z,11.73
2017-11-09T17:54:29.422Z,13.73
2017-11-09T17:56:56.905Z,12.48
2017-11-09T17:59:30.263Z,11.27
2017-11-09T18:01:58.582Z,14.02
2017-11-09T18:04:26.264Z,14.98
2017-11-09T18:06:53.731Z,15.88
2017-11-09T18:09:21.211Z,14.10
2017-11-09T18:11:48.646Z,16.50
2017-11-09T18:14:16.131Z,12.20
2017-11-09T18:16:43.586Z,14.60
2017-11-09T18:19:11.036Z,13.70
2017-11-09T18:21:38.536Z,12.73
2017-11-09T18:24:05.966Z,13.23
2017-11-09T18:26:33.410Z,12.57
2017-11-09T18:29:00.884Z,14.20
2017-11-09T18:31:34.351Z,15.35
2017-11-09T18:34:01.907Z,15.05
2017-11-09T18:36:29.346Z,16.10
2017-11-09T18:38:56.865Z,14.87
2017-11-09T18:41:35.327Z,16.87
2017-11-09T18:44:02.945Z,14.32
2017-11-09T18:46:30.382Z,18.48
2017-11-09T18:48:57.846Z,15.10
2017-11-09T18:51:25.286Z,15.07
2017-11-09T18:53:53.525Z,18.15
2017-11-09T18:56:20.972Z,15.95
2017-11-09T18:58:48.413Z,16.67
2017-11-09T19:01:16.108Z,16.08
2017-11-09T19:03:43.594Z,15.82
2017-11-09T19:06:12.263Z,14.00
2017-11-09T19:08:40.045Z,14.52
2017-11-09T19:11:11.191Z,17.10
2017-11-09T19:13:39.393Z,16.90
2017-11-09T19:16:07.091Z,16.42
2017-11-09T19:18:34.554Z,14.77
2017-11-09T19:21:02.034Z,17.55
2017-11-09T19:23:29.477Z,15.80
2017-11-09T19:25:56.935Z,16.55
2017-11-09T19:28:24.410Z,17.73
2017-11-09T19:30:51.849Z,19.60
2017-11-09T19:33:20.818Z,16.17
2017-11-09T19:35:48.285Z,18.48
2017-11-09T19:38:15.760Z,16.90
2017-11-09T19:40:43.229Z,16.95
2017-11-09T19:43:10.982Z,16.48
2017-11-09T19:45:38.421Z,16.20
2017-11-09T19:48:06.051Z,16.80
2017-11-09T19:50:33.521Z,16.35
2017-11-09T19:53:00.971Z,13.77
2017-11-09T19:55:28.420Z,15.82
2017-11-09T19:57:56.179Z,15.32
2017-11-09T20:00:23.642Z,16.90
2017-11-09T20:02:51.243Z,16.37
2017-11-09T20:05:18.751Z,16.75
2017-11-09T20:07:46.214Z,16.70
2017-11-09T20:10:13.684Z,15.57
2017-11-09T20:12:41.130Z,18.08
2017-11-09T20:15:08.630Z,16.65
2017-11-09T20:17:36.091Z,15.25
2017-11-09T20:20:03.543Z,18.40
2017-11-09T20:22:31.009Z,20.27
2017-11-09T20:24:58.525Z,18.35
2017-11-09T20:27:26.102Z,15.70
2017-11-09T20:29:53.789Z,17.05
2017-11-09T20:32:25.109Z,17.48
2017-11-09T20:34:52.567Z,15.48
2017-11-09T20:37:20.026Z,15.52
2017-11-09T20:39:47.508Z,13.90
2017-11-09T20:42:14.943Z,16.55
2017-11-09T20:44:46.332Z,16.48
2017-11-09T20:47:13.790Z,15.27
2017-11-09T20:49:41.258Z,16.00
2017-11-09T20:52:08.700Z,12.98
2017-11-09T20:54:36.147Z,14.32
2017-11-09T20:57:03.621Z,14.98
2017-11-09T20:59:31.055Z,14.75
2017-11-09T21:01:58.537Z,14.82
2017-11-09T21:04:25.995Z,14.25
2017-11-09T21:06:53.472Z,14.63
2017-11-09T21:09:20.911Z,16.62
2017-11-09T21:11:48.411Z,12.60
2017-11-09T21:14:19.154Z,14.38
2017-11-09T21:16:46.607Z,14.52
2017-11-09T21:19:14.551Z,14.15
2017-11-09T21:21:42.020Z,13.70
2017-11-09T21:24:09.464Z,13.55
2017-11-09T21:26:36.954Z,14.23
2017-11-09T21:29:08.511Z,13.35
2017-11-09T21:31:36.148Z,14.55
2017-11-09T21:34:05.612Z,14.10
2017-11-09T21:36:33.046Z,16.87
2017-11-09T21:39:00.691Z,14.18
2017-11-09T21:41:28.161Z,11.63
2017-11-09T21:44:02.611Z,13.30
2017-11-09T21:46:33.030Z,12.90
2017-11-09T21:49:00.540Z,12.73
2017-11-09T21:51:30.695Z,13.02
2017-11-09T21:53:58.135Z,13.07
2017-11-09T21:56:25.618Z,13.75
2017-11-09T21:58:57.340Z,11.68
2017-11-09T22:01:24.802Z,11.23
2017-11-09T22:03:52.274Z,12.05
2017-11-09T22:06:19.748Z,12.32
2017-11-09T22:08:47.375Z,11.63
2017-11-09T22:11:14.901Z,10.93
2017-11-09T22:13:42.386Z,12.15
2017-11-09T22:16:19.883Z,9.93
2017-11-09T22:18:47.332Z,10.10
2017-11-09T22:21:14.787Z,10.00
2017-11-09T22:23:42.258Z,10.20
2017-11-09T22:26:10.502Z,10.15
2017-11-09T22:28:37.958Z,10.73
2017-11-09T22:31:05.464Z,9.93
2017-11-09T22:33:32.998Z,9.90
2017-11-09T22:36:00.461Z,10.35
2017-11-09T22:38:27.934Z,10.88
2017-11-09T22:40:55.391Z,9.77
2017-11-09T22:43:23.644Z,10.18
2017-11-09T22:45:51.231Z,9.88
2017-11-09T22:48:18.700Z,10.02
2017-11-09T22:50:46.910Z,11.77
2017-11-09T22:53:14.420Z,8.98
2017-11-09T22:55:42.694Z,10.48
2017-11-09T22:58:10.163Z,9.55
2017-11-09T23:00:40.962Z,9.93
2017-11-09T23:03:08.431Z,11.35
2017-11-09T23:05:35.903Z,10.40
2017-11-09T23:08:03.418Z,10.85
2017-11-09T23:10:30.903Z,11.20
2017-11-09T23:12:58.379Z,11.52
2017-11-09T23:15:25.835Z,8.63
2017-11-09T23:17:53.324Z,10.57
2017-11-09T23:20:20.814Z,10.43
2017-11-09T23:22:48.317Z,9.35
2017-11-09T23:25:15.753Z,9.65
2017-11-09T23:27:43.227Z,9.07
2017-11-09T23:30:10.682Z,9.15
2017-11-09T23:32:41.985Z,10.52
2017-11-09T23:35:09.443Z,8.88
2017-11-09T23:37:36.915Z,9.45
2017-11-09T23:40:04.350Z,9.30
2017-11-09T23:42:32.034Z,9.20
2017-11-09T23:44:59.470Z,9.73
2017-11-09T23:47:26.917Z,9.05
2017-11-09T23:49:55.155Z,8.60
2017-11-09T23:52:23.375Z,9.77
2017-11-09T23:54:50.855Z,8.80
2017-11-09T23:57:18.334Z,10.05
2017-11-09T23:59:45.781Z,8.98
